createdAt,value
2023-05-14T00:01:54.315Z,13.64
2023-05-14T00:04:22.276Z,13.59
2023-05-14T00:06:50.179Z,13.57
2023-05-14T00:09:18.133Z,13.53
2023-05-14T00:11:46.143Z,13.50
2023-05-14T00:14:13.991Z,13.48
2023-05-14T00:16:41.897Z,13.47
2023-05-14T00:19:11.308Z,13.45
2023-05-14T00:21:39.259Z,13.40
2023-05-14T00:24:07.360Z,13.40
2023-05-14T00:26:35.231Z,13.36
2023-05-14T00:29:03.119Z,13.34
2023-05-14T00:31:31.111Z,13.36
2023-05-14T00:33:59.020Z,13.01
2023-05-14T00:36:28.348Z,12.99
2023-05-14T00:38:56.380Z,12.81
2023-05-14T00:41:24.401Z,12.38
2023-05-14T00:43:52.469Z,12.17
2023-05-14T00:46:20.480Z,12.10
2023-05-14T00:48:49.307Z,12.35
2023-05-14T00:51:17.376Z,12.56
2023-05-14T00:53:46.787Z,12.59
2023-05-14T00:56:15.186Z,12.39
2023-05-14T00:58:43.077Z,12.23
2023-05-14T01:01:12.189Z,12.04
2023-05-14T01:03:40.323Z,12.12
2023-05-14T01:06:12.994Z,12.21
2023-05-14T01:08:48.024Z,12.17
2023-05-14T01:11:21.433Z,12.22
2023-05-14T01:13:56.607Z,12.36
2023-05-14T01:16:28.966Z,12.48
2023-05-14T01:18:57.847Z,12.54
2023-05-14T01:21:35.338Z,12.59
2023-05-14T01:24:03.351Z,12.61
2023-05-14T01:26:31.761Z,12.56
2023-05-14T01:29:03.862Z,12.56
2023-05-14T01:31:32.790Z,12.61
2023-05-14T01:34:01.804Z,12.62
2023-05-14T01:36:31.479Z,12.62
2023-05-14T01:38:59.704Z,12.64
2023-05-14T01:41:27.836Z,12.64
2023-05-14T01:43:55.796Z,12.63
2023-05-14T01:46:25.120Z,12.65
2023-05-14T01:48:53.083Z,12.65
2023-05-14T01:51:20.991Z,12.63
2023-05-14T01:53:50.190Z,12.60
2023-05-14T01:56:18.383Z,12.55
2023-05-14T01:58:46.237Z,12.35
2023-05-14T02:01:14.144Z,12.18
2023-05-14T02:03:42.026Z,12.10
2023-05-14T02:06:09.921Z,12.16
2023-05-14T02:08:37.782Z,12.24
2023-05-14T02:11:07.199Z,11.91
2023-05-14T02:13:35.377Z,11.79
2023-05-14T02:16:03.676Z,11.89
2023-05-14T02:18:31.640Z,11.98
2023-05-14T02:20:59.617Z,12.08
2023-05-14T02:23:37.718Z,12.16
2023-05-14T02:26:10.773Z,12.20
2023-05-14T02:28:38.719Z,12.21
2023-05-14T02:31:06.690Z,12.22
2023-05-14T02:33:34.679Z,12.23
2023-05-14T02:36:02.562Z,12.21
2023-05-14T02:38:30.958Z,12.10
2023-05-14T02:40:58.821Z,12.06
2023-05-14T02:43:28.076Z,11.86
2023-05-14T02:45:55.947Z,11.86
2023-05-14T02:48:23.751Z,11.94
2023-05-14T02:50:52.180Z,11.99
2023-05-14T02:53:20.089Z,12.03
2023-05-14T02:55:48.099Z,12.07
2023-05-14T02:58:16.026Z,12.05
2023-05-14T03:00:45.342Z,12.05
2023-05-14T03:03:13.985Z,12.04
2023-05-14T03:05:42.222Z,12.02
2023-05-14T03:08:12.433Z,12.01
2023-05-14T03:10:40.436Z,12.00
2023-05-14T03:13:08.319Z,11.99
2023-05-14T03:15:36.194Z,11.98
2023-05-14T03:18:05.485Z,11.97
2023-05-14T03:20:33.575Z,11.96
2023-05-14T03:23:01.708Z,11.95
2023-05-14T03:25:29.559Z,11.93
2023-05-14T03:27:58.902Z,11.90
2023-05-14T03:30:26.979Z,11.87
2023-05-14T03:32:55.962Z,11.88
2023-05-14T03:35:25.573Z,11.88
2023-05-14T03:37:54.251Z,11.87
2023-05-14T03:40:22.363Z,11.85
2023-05-14T03:42:51.313Z,11.84
2023-05-14T03:45:19.548Z,11.82
2023-05-14T03:47:47.540Z,11.83
2023-05-14T03:50:15.614Z,11.82
2023-05-14T03:52:46.552Z,11.85
2023-05-14T03:55:14.518Z,11.80
2023-05-14T03:57:43.897Z,11.81
2023-05-14T04:00:13.848Z,11.82
2023-05-14T04:02:44.722Z,11.75
2023-05-14T04:05:12.666Z,11.76
2023-05-14T04:07:40.523Z,11.73
2023-05-14T04:10:10.845Z,11.81
2023-05-14T04:12:38.837Z,11.85
2023-05-14T04:15:08.408Z,11.89
2023-05-14T04:17:36.490Z,11.91
2023-05-14T04:20:05.009Z,11.95
2023-05-14T04:22:33.157Z,11.97
2023-05-14T04:25:00.991Z,12.01
2023-05-14T04:27:30.266Z,12.04
2023-05-14T04:29:58.553Z,12.06
2023-05-14T04:32:26.621Z,12.08
2023-05-14T04:34:54.488Z,12.11
2023-05-14T04:37:22.402Z,12.15
2023-05-14T04:39:50.316Z,12.19
2023-05-14T04:42:18.216Z,12.20
2023-05-14T04:44:47.398Z,12.19
2023-05-14T04:47:15.449Z,12.23
2023-05-14T04:49:43.434Z,12.30
2023-05-14T04:52:11.368Z,12.34
2023-05-14T04:54:39.285Z,12.32
2023-05-14T04:57:07.236Z,12.36
2023-05-14T04:59:35.136Z,12.43
2023-05-14T05:02:06.824Z,12.50
2023-05-14T05:04:34.868Z,12.53
2023-05-14T05:07:02.744Z,12.56
2023-05-14T05:09:30.618Z,12.59
2023-05-14T05:11:58.491Z,12.64
2023-05-14T05:14:26.388Z,12.69
2023-05-14T05:16:54.235Z,12.70
2023-05-14T05:19:35.895Z,12.74
2023-05-14T05:22:07.995Z,12.74
2023-05-14T05:24:35.836Z,12.80
2023-05-14T05:27:03.751Z,12.95
2023-05-14T05:29:31.609Z,13.05
2023-05-14T05:31:59.842Z,13.20
2023-05-14T05:34:29.159Z,13.35
2023-05-14T05:36:57.179Z,13.50
2023-05-14T05:39:25.140Z,13.64
2023-05-14T05:41:53.025Z,13.81
2023-05-14T05:44:21.921Z,13.94
2023-05-14T05:46:51.117Z,14.03
2023-05-14T05:49:19.064Z,14.15
2023-05-14T05:51:48.362Z,14.25
2023-05-14T05:54:16.311Z,14.41
2023-05-14T05:56:44.503Z,14.55
2023-05-14T05:59:12.900Z,14.65
2023-05-14T06:01:43.469Z,14.78
2023-05-14T06:04:11.400Z,14.79
2023-05-14T06:06:39.268Z,14.82
2023-05-14T06:09:09.033Z,14.79
2023-05-14T06:11:37.291Z,14.85
2023-05-14T06:14:05.428Z,14.90
2023-05-14T06:16:33.475Z,14.94
2023-05-14T06:19:02.120Z,15.08
2023-05-14T06:21:30.075Z,15.18
2023-05-14T06:23:57.933Z,15.22
2023-05-14T06:26:27.178Z,15.25
2023-05-14T06:28:55.059Z,15.48
2023-05-14T06:31:22.924Z,15.80
2023-05-14T06:33:50.793Z,15.89
2023-05-14T06:36:18.750Z,16.23
2023-05-14T06:38:46.665Z,16.54
2023-05-14T06:41:14.803Z,16.90
2023-05-14T06:43:44.033Z,16.96
2023-05-14T06:46:11.950Z,17.25
2023-05-14T06:48:39.808Z,17.63
2023-05-14T06:51:07.851Z,17.70
2023-05-14T06:53:36.221Z,17.77
2023-05-14T06:56:04.327Z,17.79
2023-05-14T06:58:32.333Z,17.83
2023-05-14T07:01:02.073Z,17.77
2023-05-14T07:03:30.214Z,17.95
2023-05-14T07:05:58.441Z,17.92
2023-05-14T07:08:26.581Z,18.05
2023-05-14T07:10:54.505Z,17.97
2023-05-14T07:13:22.453Z,18.08
2023-05-14T07:15:51.278Z,18.33
2023-05-14T07:18:20.552Z,18.62
2023-05-14T07:20:48.550Z,18.81
2023-05-14T07:23:18.540Z,19.21
2023-05-14T07:25:47.739Z,19.37
2023-05-14T07:28:15.694Z,19.64
2023-05-14T07:30:43.624Z,19.70
2023-05-14T07:33:11.527Z,19.94
2023-05-14T07:35:40.865Z,20.07
2023-05-14T07:38:08.686Z,20.63
2023-05-14T07:40:36.582Z,20.79
2023-05-14T07:43:04.404Z,20.97
2023-05-14T07:45:32.406Z,20.95
2023-05-14T07:48:00.712Z,21.07
2023-05-14T07:50:28.767Z,21.35
2023-05-14T07:52:58.085Z,21.37
2023-05-14T07:55:26.086Z,21.51
2023-05-14T07:57:54.008Z,20.91
2023-05-14T08:00:22.048Z,20.68
2023-05-14T08:02:50.536Z,20.70
2023-05-14T08:05:18.592Z,20.51
2023-05-14T08:07:46.774Z,20.24
2023-05-14T08:10:16.018Z,20.14
2023-05-14T08:12:43.942Z,20.43
2023-05-14T08:15:12.060Z,20.83
2023-05-14T08:17:40.148Z,20.72
2023-05-14T08:20:09.868Z,21.28
2023-05-14T08:22:38.029Z,21.35
2023-05-14T08:25:07.803Z,21.42
2023-05-14T08:27:37.047Z,21.71
2023-05-14T08:30:06.395Z,21.07
2023-05-14T08:32:34.345Z,20.60
2023-05-14T08:35:02.259Z,20.55
2023-05-14T08:37:30.179Z,20.61
2023-05-14T08:39:58.074Z,21.29
2023-05-14T08:42:27.022Z,21.60
2023-05-14T08:44:59.229Z,21.77
2023-05-14T08:47:27.324Z,22.19
2023-05-14T08:50:00.676Z,21.79
2023-05-14T08:52:28.653Z,21.61
2023-05-14T08:54:57.336Z,21.95
2023-05-14T08:57:26.959Z,21.72
2023-05-14T08:59:56.380Z,21.64
2023-05-14T09:02:26.056Z,21.74
2023-05-14T09:04:57.362Z,21.68
2023-05-14T09:07:25.586Z,21.80
2023-05-14T09:09:54.497Z,21.99
2023-05-14T09:12:22.811Z,22.12
2023-05-14T09:14:51.468Z,22.37
2023-05-14T09:17:21.178Z,22.64
2023-05-14T09:19:53.125Z,22.56
2023-05-14T09:22:21.748Z,22.59
2023-05-14T09:25:03.841Z,22.68
2023-05-14T09:27:32.674Z,22.80
2023-05-14T09:30:07.209Z,23.08
2023-05-14T09:32:40.679Z,23.08
2023-05-14T09:35:19.774Z,22.71
2023-05-14T09:37:48.851Z,22.72
2023-05-14T09:40:18.161Z,23.28
2023-05-14T09:42:46.243Z,22.96
2023-05-14T09:45:14.095Z,23.26
2023-05-14T09:47:45.010Z,23.30
2023-05-14T09:50:13.526Z,23.36
2023-05-14T09:52:41.470Z,23.55
2023-05-14T09:55:10.056Z,23.80
2023-05-14T09:57:38.086Z,23.86
2023-05-14T10:00:08.825Z,24.13
2023-05-14T10:02:38.958Z,24.05
2023-05-14T10:05:09.559Z,24.00
2023-05-14T10:07:41.686Z,23.68
2023-05-14T10:10:13.612Z,23.57
2023-05-14T10:12:41.867Z,24.06
2023-05-14T10:15:14.893Z,24.29
2023-05-14T10:17:46.173Z,24.56
2023-05-14T10:20:16.674Z,23.69
2023-05-14T10:22:44.797Z,23.35
2023-05-14T10:25:13.060Z,23.32
2023-05-14T10:27:41.718Z,23.32
2023-05-14T10:30:12.961Z,23.61
2023-05-14T10:32:42.006Z,23.64
2023-05-14T10:35:25.371Z,23.65
2023-05-14T10:37:53.297Z,23.53
2023-05-14T10:40:21.517Z,23.53
2023-05-14T10:42:49.822Z,23.53
2023-05-14T10:45:17.974Z,23.91
2023-05-14T10:47:48.207Z,23.94
2023-05-14T10:50:17.746Z,24.50
2023-05-14T10:52:47.264Z,24.63
2023-05-14T10:55:16.722Z,23.70
2023-05-14T10:57:46.145Z,23.81
2023-05-14T11:00:15.081Z,23.80
2023-05-14T11:02:44.212Z,23.81
2023-05-14T11:05:15.907Z,23.74
2023-05-14T11:07:45.262Z,22.97
2023-05-14T11:10:16.313Z,22.88
2023-05-14T11:12:46.605Z,22.54
2023-05-14T11:15:15.836Z,22.67
2023-05-14T11:17:45.180Z,22.62
2023-05-14T11:20:13.738Z,22.68
2023-05-14T11:22:43.162Z,23.00
2023-05-14T11:25:14.851Z,23.10
2023-05-14T11:27:46.594Z,23.28
2023-05-14T11:30:17.167Z,24.14
2023-05-14T11:32:46.636Z,23.54
2023-05-14T11:35:14.779Z,23.84
2023-05-14T11:37:42.876Z,23.87
2023-05-14T11:40:16.629Z,23.55
2023-05-14T11:42:46.261Z,23.29
2023-05-14T11:45:14.811Z,22.94
2023-05-14T11:47:42.851Z,22.98
2023-05-14T11:50:11.412Z,22.91
2023-05-14T11:52:41.017Z,22.92
2023-05-14T11:55:12.475Z,22.80
2023-05-14T12:01:56.445Z,22.86
2023-05-14T12:04:24.950Z,22.88
2023-05-14T12:06:53.826Z,22.69
2023-05-14T12:09:22.697Z,22.30
2023-05-14T12:11:51.772Z,22.46
2023-05-14T12:14:21.002Z,22.51
2023-05-14T12:16:49.245Z,22.24
2023-05-14T12:19:19.874Z,22.23
2023-05-14T12:22:06.578Z,22.33
2023-05-14T12:24:56.741Z,22.35
2023-05-14T12:27:25.183Z,22.54
2023-05-14T12:30:09.253Z,22.47
2023-05-14T12:32:41.906Z,22.74
2023-05-14T12:35:11.383Z,22.91
2023-05-14T12:37:40.026Z,22.91
2023-05-14T12:40:10.223Z,22.75
2023-05-14T12:42:38.362Z,22.54
2023-05-14T12:45:08.619Z,22.51
2023-05-14T12:47:37.479Z,22.72
2023-05-14T12:50:06.530Z,22.90
2023-05-14T12:52:39.210Z,23.23
2023-05-14T12:55:08.876Z,23.24
2023-05-14T12:57:36.808Z,23.47
2023-05-14T13:00:08.209Z,23.54
2023-05-14T13:02:43.006Z,23.54
2023-05-14T13:05:11.709Z,23.58
2023-05-14T13:07:41.085Z,23.37
2023-05-14T13:10:10.084Z,23.50
2023-05-14T13:12:38.699Z,23.47
2023-05-14T13:15:07.664Z,23.56
2023-05-14T13:17:35.586Z,23.57
2023-05-14T13:20:04.723Z,23.49
2023-05-14T13:22:32.589Z,23.38
2023-05-14T13:25:01.888Z,23.54
2023-05-14T13:27:30.442Z,23.62
2023-05-14T13:29:58.829Z,23.68
2023-05-14T13:32:27.184Z,23.65
2023-05-14T13:34:55.161Z,23.79
2023-05-14T13:37:23.040Z,23.65
2023-05-14T13:39:51.648Z,23.81
2023-05-14T13:42:20.895Z,24.03
2023-05-14T13:44:51.084Z,23.98
2023-05-14T13:47:18.996Z,23.82
2023-05-14T13:49:46.798Z,23.88
2023-05-14T13:52:14.704Z,24.15
2023-05-14T13:54:42.518Z,23.97
2023-05-14T13:57:10.916Z,23.80
2023-05-14T13:59:40.119Z,23.48
2023-05-14T14:02:08.602Z,23.37
2023-05-14T14:04:36.768Z,23.17
2023-05-14T14:07:05.058Z,22.93
2023-05-14T14:09:35.152Z,22.65
2023-05-14T14:12:04.505Z,22.75
2023-05-14T14:14:32.566Z,22.50
2023-05-14T14:17:01.777Z,22.08
2023-05-14T14:19:30.093Z,21.91
2023-05-14T14:21:58.664Z,21.68
2023-05-14T14:24:26.523Z,21.41
2023-05-14T14:26:54.394Z,20.62
2023-05-14T14:29:23.934Z,20.30
2023-05-14T14:31:51.919Z,20.32
2023-05-14T14:34:22.338Z,20.43
2023-05-14T14:36:50.172Z,20.56
2023-05-14T14:39:18.020Z,20.69
2023-05-14T14:41:47.732Z,20.73
2023-05-14T14:44:15.623Z,20.79
2023-05-14T14:46:43.906Z,20.70
2023-05-14T14:49:11.789Z,20.58
2023-05-14T14:51:41.148Z,20.56
2023-05-14T14:54:08.992Z,20.68
2023-05-14T14:56:36.903Z,20.91
2023-05-14T14:59:04.797Z,20.90
2023-05-14T15:01:32.702Z,20.95
2023-05-14T15:04:00.574Z,20.80
2023-05-14T15:06:28.924Z,20.76
2023-05-14T15:08:58.112Z,20.65
2023-05-14T15:11:26.034Z,20.63
2023-05-14T15:13:53.993Z,20.63
2023-05-14T15:16:21.949Z,20.68
2023-05-14T15:18:49.833Z,20.85
2023-05-14T15:21:17.741Z,20.79
2023-05-14T15:23:45.556Z,20.83
2023-05-14T15:26:15.019Z,20.92
2023-05-14T15:28:43.177Z,20.91
2023-05-14T15:31:11.244Z,20.93
2023-05-14T15:33:39.247Z,20.89
2023-05-14T15:36:07.227Z,20.90
2023-05-14T15:38:35.077Z,21.01
2023-05-14T15:41:02.972Z,21.06
2023-05-14T15:43:32.219Z,21.04
2023-05-14T15:46:00.221Z,20.95
2023-05-14T15:48:28.065Z,20.78
2023-05-14T15:50:55.969Z,20.65
2023-05-14T15:53:23.811Z,20.66
2023-05-14T15:55:51.673Z,20.74
2023-05-14T15:58:19.523Z,20.79
2023-05-14T16:00:48.764Z,20.75
2023-05-14T16:03:19.142Z,20.64
2023-05-14T16:05:48.571Z,20.54
2023-05-14T16:08:16.399Z,20.56
2023-05-14T16:10:44.324Z,20.58
2023-05-14T16:13:12.162Z,20.71
2023-05-14T16:15:40.880Z,20.72
2023-05-14T16:18:10.265Z,20.77
2023-05-14T16:20:38.140Z,20.55
2023-05-14T16:23:06.337Z,20.57
2023-05-14T16:25:34.267Z,20.52
2023-05-14T16:28:02.270Z,20.49
2023-05-14T16:30:30.204Z,20.47
2023-05-14T16:32:58.130Z,20.22
2023-05-14T16:35:27.425Z,20.00
2023-05-14T16:37:55.444Z,19.92
2023-05-14T16:40:24.702Z,19.93
2023-05-14T16:42:52.856Z,19.99
2023-05-14T16:45:20.676Z,20.10
2023-05-14T16:47:48.752Z,19.96
2023-05-14T16:50:16.696Z,19.92
2023-05-14T16:52:45.890Z,19.83
2023-05-14T16:55:13.795Z,19.76
2023-05-14T16:57:43.709Z,19.69
2023-05-14T17:00:13.064Z,19.80
2023-05-14T17:02:40.992Z,19.82
2023-05-14T17:05:09.998Z,19.66
2023-05-14T17:07:38.365Z,19.67
2023-05-14T17:10:08.720Z,19.75
2023-05-14T17:12:36.628Z,19.72
2023-05-14T17:15:05.606Z,19.67
2023-05-14T17:17:34.001Z,19.67
2023-05-14T17:20:02.178Z,19.58
2023-05-14T17:22:30.062Z,19.59
2023-05-14T17:24:57.857Z,19.50
2023-05-14T17:27:29.212Z,19.35
2023-05-14T17:29:57.115Z,19.29
2023-05-14T17:32:25.217Z,19.27
2023-05-14T17:34:53.422Z,19.31
2023-05-14T17:37:21.292Z,19.29
2023-05-14T17:39:49.192Z,19.33
2023-05-14T17:42:17.273Z,19.28
2023-05-14T17:44:46.611Z,19.32
2023-05-14T17:47:14.734Z,19.25
2023-05-14T17:49:42.678Z,19.22
2023-05-14T17:52:10.709Z,19.08
2023-05-14T17:54:38.549Z,19.07
2023-05-14T17:57:06.879Z,19.21
2023-05-14T17:59:34.793Z,19.04
2023-05-14T18:02:05.668Z,18.99
2023-05-14T18:04:33.570Z,18.93
2023-05-14T18:07:01.864Z,18.89
2023-05-14T18:09:29.700Z,18.90
2023-05-14T18:11:57.522Z,18.88
2023-05-14T18:14:25.339Z,18.84
2023-05-14T18:16:53.260Z,18.82
2023-05-14T18:19:22.687Z,18.83
2023-05-14T18:21:50.885Z,18.80
2023-05-14T18:24:18.700Z,18.77
2023-05-14T18:26:46.629Z,18.70
2023-05-14T18:29:14.526Z,18.70
2023-05-14T18:31:42.408Z,18.61
2023-05-14T18:34:10.686Z,18.61
2023-05-14T18:36:40.412Z,18.61
2023-05-14T18:39:08.378Z,18.59
2023-05-14T18:41:36.257Z,18.66
2023-05-14T18:44:04.182Z,18.59
2023-05-14T18:46:32.398Z,18.49
2023-05-14T18:49:00.286Z,18.40
2023-05-14T18:51:28.119Z,18.45
2023-05-14T18:53:57.683Z,18.34
2023-05-14T18:56:25.842Z,18.39
2023-05-14T18:58:54.257Z,18.30
2023-05-14T19:01:25.064Z,18.28
2023-05-14T19:03:53.670Z,18.31
2023-05-14T19:06:21.702Z,18.26
2023-05-14T19:08:50.214Z,18.23
2023-05-14T19:11:19.528Z,18.21
2023-05-14T19:13:49.506Z,18.12
2023-05-14T19:16:17.561Z,18.16
2023-05-14T19:18:45.585Z,18.17
2023-05-14T19:21:14.877Z,18.17
2023-05-14T19:23:42.816Z,18.08
2023-05-14T19:26:10.878Z,17.96
2023-05-14T19:28:40.279Z,17.86
2023-05-14T19:31:08.299Z,17.81
2023-05-14T19:33:36.352Z,17.80
2023-05-14T19:36:04.706Z,17.80
2023-05-14T19:38:32.717Z,17.78
2023-05-14T19:41:00.751Z,17.76
2023-05-14T19:43:29.052Z,17.74
2023-05-14T19:45:59.986Z,17.72
2023-05-14T19:48:29.376Z,17.71
2023-05-14T19:50:57.255Z,17.63
2023-05-14T19:53:29.571Z,17.57
2023-05-14T19:55:57.818Z,17.49
2023-05-14T19:58:26.083Z,17.45
2023-05-14T20:00:54.503Z,17.43
2023-05-14T20:03:25.509Z,17.44
2023-05-14T20:05:54.114Z,17.42
2023-05-14T20:08:22.282Z,17.42
2023-05-14T20:10:50.147Z,17.46
2023-05-14T20:13:18.074Z,17.44
2023-05-14T20:15:46.590Z,17.40
2023-05-14T20:18:14.579Z,17.41
2023-05-14T20:20:44.008Z,17.41
2023-05-14T20:23:11.995Z,17.38
2023-05-14T20:25:40.018Z,17.37
2023-05-14T20:28:07.890Z,17.31
2023-05-14T20:30:35.835Z,17.25
2023-05-14T20:33:04.030Z,17.20
2023-05-14T20:35:32.091Z,17.19
2023-05-14T20:38:02.167Z,17.15
2023-05-14T20:40:30.243Z,17.12
2023-05-14T20:42:58.165Z,17.12
2023-05-14T20:45:26.575Z,17.00
2023-05-14T20:47:54.930Z,16.92
2023-05-14T20:50:23.137Z,16.94
2023-05-14T20:52:51.074Z,16.95
2023-05-14T20:55:21.689Z,16.86
2023-05-14T20:57:50.690Z,16.74
2023-05-14T21:00:19.485Z,16.68
2023-05-14T21:02:49.191Z,16.73
2023-05-14T21:05:17.955Z,16.74
2023-05-14T21:07:46.932Z,16.78
2023-05-14T21:10:14.841Z,16.75
2023-05-14T21:12:44.870Z,16.75
2023-05-14T21:15:12.924Z,16.76
2023-05-14T21:17:40.842Z,16.62
2023-05-14T21:20:11.931Z,16.64
2023-05-14T21:22:39.830Z,16.68
2023-05-14T21:25:08.246Z,16.70
2023-05-14T21:27:36.115Z,16.67
2023-05-14T21:30:06.256Z,16.66
2023-05-14T21:32:34.202Z,16.63
2023-05-14T21:35:02.145Z,16.63
2023-05-14T21:37:30.080Z,16.60
2023-05-14T21:39:57.912Z,16.51
2023-05-14T21:42:25.901Z,16.48
2023-05-14T21:44:53.727Z,16.45
2023-05-14T21:47:23.023Z,16.49
2023-05-14T21:49:50.978Z,16.46
2023-05-14T21:52:18.799Z,16.42
2023-05-14T21:54:46.676Z,16.37
2023-05-14T21:57:14.585Z,16.40
2023-05-14T21:59:42.429Z,16.32
2023-05-14T22:02:10.319Z,16.32
2023-05-14T22:04:39.561Z,16.34
2023-05-14T22:07:07.489Z,16.37
2023-05-14T22:09:35.352Z,16.38
2023-05-14T22:12:03.244Z,16.36
2023-05-14T22:14:31.121Z,16.34
2023-05-14T22:16:59.045Z,16.32
2023-05-14T22:19:27.887Z,16.27
2023-05-14T22:21:57.111Z,16.21
2023-05-14T22:24:25.066Z,16.14
2023-05-14T22:26:52.895Z,16.14
2023-05-14T22:29:20.790Z,16.13
2023-05-14T22:31:48.702Z,16.10
2023-05-14T22:34:16.729Z,16.09
2023-05-14T22:36:44.545Z,16.08
2023-05-14T22:39:13.769Z,16.08
2023-05-14T22:41:41.653Z,16.06
2023-05-14T22:44:09.496Z,16.04
2023-05-14T22:46:37.431Z,16.03
2023-05-14T22:49:05.364Z,16.01
2023-05-14T22:51:33.363Z,15.96
2023-05-14T22:54:01.270Z,15.94
2023-05-14T22:56:30.809Z,15.92
2023-05-14T22:59:00.261Z,15.89
2023-05-14T23:01:28.419Z,15.78
2023-05-14T23:03:56.362Z,15.76
2023-05-14T23:06:24.288Z,15.70
2023-05-14T23:08:52.176Z,15.67
2023-05-14T23:11:20.059Z,15.65
2023-05-14T23:13:49.287Z,15.64
2023-05-14T23:16:17.169Z,15.62
2023-05-14T23:18:45.102Z,15.59
2023-05-14T23:21:13.518Z,15.55
2023-05-14T23:23:41.323Z,15.53
2023-05-14T23:26:09.184Z,15.49
2023-05-14T23:28:37.012Z,15.47
2023-05-14T23:31:06.337Z,15.44
2023-05-14T23:33:34.239Z,15.40
2023-05-14T23:36:02.200Z,15.37
2023-05-14T23:38:30.033Z,15.32
2023-05-14T23:40:57.863Z,15.29
2023-05-14T23:43:25.765Z,15.27
2023-05-14T23:45:53.653Z,15.26
2023-05-14T23:48:22.846Z,15.25
2023-05-14T23:50:50.804Z,15.21
2023-05-14T23:53:18.774Z,15.19
2023-05-14T23:55:46.623Z,15.15
2023-05-14T23:58:14.482Z,15.08
